sensor_id;sensor_type;location;lat;lon;timestamp;P1;durP1;ratioP1;P2;durP2;ratioP2
26858;SDS011;14429;48.346;16.338;2023-02-24T00:01:44;8.48;;;3.65;;
26858;SDS011;14429;48.346;16.338;2023-02-24T00:04:11;7.90;;;3.88;;
26858;SDS011;14429;48.346;16.338;2023-02-24T00:06:38;7.05;;;3.75;;
26858;SDS011;14429;48.346;16.338;2023-02-24T00:09:07;7.03;;;3.47;;
26858;SDS011;14429;48.346;16.338;2023-02-24T00:11:34;6.28;;;3.60;;
26858;SDS011;14429;48.346;16.338;2023-02-24T00:14:00;8.05;;;4.38;;
26858;SDS011;14429;48.346;16.338;2023-02-24T00:16:25;6.85;;;3.90;;
26858;SDS011;14429;48.346;16.338;2023-02-24T00:18:51;5.55;;;3.50;;
26858;SDS011;14429;48.346;16.338;2023-02-24T00:21:18;10.43;;;4.22;;
26858;SDS011;14429;48.346;16.338;2023-02-24T00:23:45;7.78;;;4.20;;
26858;SDS011;14429;48.346;16.338;2023-02-24T00:26:13;8.60;;;3.80;;
26858;SDS011;14429;48.346;16.338;2023-02-24T00:28:40;6.03;;;3.92;;
26858;SDS011;14429;48.346;16.338;2023-02-24T00:31:07;6.40;;;3.42;;
26858;SDS011;14429;48.346;16.338;2023-02-24T00:33:33;5.95;;;3.60;;
26858;SDS011;14429;48.346;16.338;2023-02-24T00:36:09;5.85;;;3.65;;
26858;SDS011;14429;48.346;16.338;2023-02-24T00:38:37;8.43;;;3.85;;
26858;SDS011;14429;48.346;16.338;2023-02-24T00:41:14;5.05;;;3.30;;
26858;SDS011;14429;48.346;16.338;2023-02-24T00:43:40;7.15;;;3.85;;
26858;SDS011;14429;48.346;16.338;2023-02-24T00:46:07;8.38;;;3.95;;
26858;SDS011;14429;48.346;16.338;2023-02-24T00:48:32;8.60;;;4.20;;
26858;SDS011;14429;48.346;16.338;2023-02-24T00:50:59;6.03;;;3.60;;
26858;SDS011;14429;48.346;16.338;2023-02-24T00:53:25;9.32;;;4.47;;
26858;SDS011;14429;48.346;16.338;2023-02-24T00:55:57;8.02;;;3.50;;
26858;SDS011;14429;48.346;16.338;2023-02-24T00:58:24;7.35;;;3.78;;
26858;SDS011;14429;48.346;16.338;2023-02-24T01:00:49;6.78;;;4.07;;
26858;SDS011;14429;48.346;16.338;2023-02-24T01:03:15;6.40;;;4.15;;
26858;SDS011;14429;48.346;16.338;2023-02-24T01:05:40;6.10;;;4.68;;
26858;SDS011;14429;48.346;16.338;2023-02-24T01:08:06;7.22;;;3.67;;
26858;SDS011;14429;48.346;16.338;2023-02-24T01:10:31;5.10;;;3.35;;
26858;SDS011;14429;48.346;16.338;2023-02-24T01:12:57;6.60;;;3.25;;
26858;SDS011;14429;48.346;16.338;2023-02-24T01:15:24;8.68;;;4.30;;
26858;SDS011;14429;48.346;16.338;2023-02-24T01:17:49;7.47;;;3.55;;
26858;SDS011;14429;48.346;16.338;2023-02-24T01:22:41;6.20;;;3.75;;
26858;SDS011;14429;48.346;16.338;2023-02-24T01:25:07;6.93;;;3.58;;
26858;SDS011;14429;48.346;16.338;2023-02-24T01:27:32;6.90;;;3.95;;
26858;SDS011;14429;48.346;16.338;2023-02-24T01:29:58;6.90;;;4.15;;
26858;SDS011;14429;48.346;16.338;2023-02-24T01:32:24;9.73;;;4.40;;
26858;SDS011;14429;48.346;16.338;2023-02-24T01:34:50;7.80;;;4.60;;
26858;SDS011;14429;48.346;16.338;2023-02-24T01:37:16;5.78;;;3.50;;
26858;SDS011;14429;48.346;16.338;2023-02-24T01:39:42;7.22;;;3.35;;
26858;SDS011;14429;48.346;16.338;2023-02-24T01:42:09;7.22;;;3.45;;
26858;SDS011;14429;48.346;16.338;2023-02-24T01:47:40;7.32;;;4.03;;
26858;SDS011;14429;48.346;16.338;2023-02-24T01:50:08;7.82;;;4.10;;
26858;SDS011;14429;48.346;16.338;2023-02-24T01:52:34;5.90;;;3.80;;
26858;SDS011;14429;48.346;16.338;2023-02-24T01:55:03;9.23;;;4.05;;
26858;SDS011;14429;48.346;16.338;2023-02-24T01:57:32;6.70;;;3.28;;
26858;SDS011;14429;48.346;16.338;2023-02-24T02:00:01;5.93;;;3.38;;
26858;SDS011;14429;48.346;16.338;2023-02-24T02:02:29;6.93;;;3.80;;
26858;SDS011;14429;48.346;16.338;2023-02-24T02:04:57;6.13;;;3.45;;
26858;SDS011;14429;48.346;16.338;2023-02-24T02:07:27;9.00;;;4.18;;
26858;SDS011;14429;48.346;16.338;2023-02-24T02:09:53;5.00;;;3.53;;
26858;SDS011;14429;48.346;16.338;2023-02-24T02:12:21;7.47;;;3.88;;
26858;SDS011;14429;48.346;16.338;2023-02-24T02:14:48;11.02;;;4.85;;
26858;SDS011;14429;48.346;16.338;2023-02-24T02:17:18;6.10;;;3.50;;
26858;SDS011;14429;48.346;16.338;2023-02-24T02:19:55;7.00;;;4.10;;
26858;SDS011;14429;48.346;16.338;2023-02-24T02:25:47;5.85;;;4.00;;
26858;SDS011;14429;48.346;16.338;2023-02-24T02:28:33;6.60;;;4.38;;
26858;SDS011;14429;48.346;16.338;2023-02-24T02:34:13;4.93;;;3.28;;
26858;SDS011;14429;48.346;16.338;2023-02-24T02:36:51;7.30;;;3.80;;
26858;SDS011;14429;48.346;16.338;2023-02-24T02:39:26;7.22;;;3.83;;
26858;SDS011;14429;48.346;16.338;2023-02-24T02:42:05;34.53;;;15.93;;
26858;SDS011;14429;48.346;16.338;2023-02-24T02:44:37;20.87;;;10.87;;
26858;SDS011;14429;48.346;16.338;2023-02-24T02:47:10;8.23;;;4.90;;
26858;SDS011;14429;48.346;16.338;2023-02-24T02:49:43;6.93;;;4.05;;
26858;SDS011;14429;48.346;16.338;2023-02-24T02:52:14;15.57;;;7.55;;
26858;SDS011;14429;48.346;16.338;2023-02-24T02:54:47;9.63;;;5.05;;
26858;SDS011;14429;48.346;16.338;2023-02-24T02:57:18;8.65;;;4.03;;
26858;SDS011;14429;48.346;16.338;2023-02-24T02:59:49;5.90;;;3.95;;
26858;SDS011;14429;48.346;16.338;2023-02-24T03:02:19;7.03;;;3.90;;
26858;SDS011;14429;48.346;16.338;2023-02-24T03:04:50;5.55;;;3.63;;
26858;SDS011;14429;48.346;16.338;2023-02-24T03:07:18;7.13;;;4.28;;
26858;SDS011;14429;48.346;16.338;2023-02-24T03:09:48;6.70;;;3.95;;
26858;SDS011;14429;48.346;16.338;2023-02-24T03:12:16;6.45;;;3.65;;
26858;SDS011;14429;48.346;16.338;2023-02-24T03:14:45;7.95;;;4.10;;
26858;SDS011;14429;48.346;16.338;2023-02-24T03:17:14;7.82;;;4.18;;
26858;SDS011;14429;48.346;16.338;2023-02-24T03:19:44;6.90;;;3.83;;
26858;SDS011;14429;48.346;16.338;2023-02-24T03:22:14;5.93;;;3.60;;
26858;SDS011;14429;48.346;16.338;2023-02-24T03:24:43;5.35;;;3.13;;
26858;SDS011;14429;48.346;16.338;2023-02-24T03:27:10;6.22;;;3.63;;
26858;SDS011;14429;48.346;16.338;2023-02-24T03:29:42;6.57;;;3.67;;
26858;SDS011;14429;48.346;16.338;2023-02-24T03:32:11;5.43;;;3.65;;
26858;SDS011;14429;48.346;16.338;2023-02-24T03:34:43;8.35;;;4.25;;
26858;SDS011;14429;48.346;16.338;2023-02-24T03:37:15;8.05;;;4.43;;
26858;SDS011;14429;48.346;16.338;2023-02-24T03:39:41;6.72;;;3.72;;
26858;SDS011;14429;48.346;16.338;2023-02-24T03:42:09;5.93;;;3.47;;
26858;SDS011;14429;48.346;16.338;2023-02-24T03:44:37;6.60;;;3.95;;
26858;SDS011;14429;48.346;16.338;2023-02-24T03:47:03;6.75;;;3.72;;
26858;SDS011;14429;48.346;16.338;2023-02-24T03:49:28;8.85;;;4.43;;
26858;SDS011;14429;48.346;16.338;2023-02-24T03:51:57;8.30;;;3.75;;
26858;SDS011;14429;48.346;16.338;2023-02-24T03:54:39;7.10;;;4.43;;
26858;SDS011;14429;48.346;16.338;2023-02-24T03:57:16;9.95;;;4.40;;
26858;SDS011;14429;48.346;16.338;2023-02-24T03:59:55;7.53;;;4.25;;
26858;SDS011;14429;48.346;16.338;2023-02-24T04:02:27;4.78;;;3.53;;
26858;SDS011;14429;48.346;16.338;2023-02-24T04:04:56;5.60;;;3.63;;
26858;SDS011;14429;48.346;16.338;2023-02-24T04:07:30;7.43;;;3.95;;
26858;SDS011;14429;48.346;16.338;2023-02-24T04:10:06;6.18;;;4.00;;
26858;SDS011;14429;48.346;16.338;2023-02-24T04:12:37;9.65;;;3.80;;
26858;SDS011;14429;48.346;16.338;2023-02-24T04:15:09;7.68;;;4.05;;
26858;SDS011;14429;48.346;16.338;2023-02-24T04:17:41;5.05;;;3.58;;
26858;SDS011;14429;48.346;16.338;2023-02-24T04:20:11;8.32;;;3.90;;
26858;SDS011;14429;48.346;16.338;2023-02-24T04:22:39;6.03;;;4.18;;
26858;SDS011;14429;48.346;16.338;2023-02-24T04:25:10;8.85;;;4.45;;
26858;SDS011;14429;48.346;16.338;2023-02-24T04:27:37;6.63;;;3.92;;
26858;SDS011;14429;48.346;16.338;2023-02-24T04:30:05;7.00;;;4.20;;
26858;SDS011;14429;48.346;16.338;2023-02-24T04:32:32;19.40;;;7.25;;
26858;SDS011;14429;48.346;16.338;2023-02-24T04:35:01;10.10;;;4.30;;
26858;SDS011;14429;48.346;16.338;2023-02-24T04:37:28;7.40;;;3.88;;
26858;SDS011;14429;48.346;16.338;2023-02-24T04:39:54;7.28;;;4.20;;
26858;SDS011;14429;48.346;16.338;2023-02-24T04:42:20;9.38;;;3.97;;
26858;SDS011;14429;48.346;16.338;2023-02-24T04:44:46;7.00;;;3.85;;
26858;SDS011;14429;48.346;16.338;2023-02-24T04:47:11;6.13;;;3.80;;
26858;SDS011;14429;48.346;16.338;2023-02-24T04:49:37;4.85;;;3.20;;
26858;SDS011;14429;48.346;16.338;2023-02-24T04:52:02;21.83;;;10.43;;
26858;SDS011;14429;48.346;16.338;2023-02-24T04:54:28;7.90;;;4.18;;
26858;SDS011;14429;48.346;16.338;2023-02-24T04:56:53;6.47;;;3.60;;
26858;SDS011;14429;48.346;16.338;2023-02-24T04:59:20;7.63;;;4.00;;
26858;SDS011;14429;48.346;16.338;2023-02-24T05:01:46;7.82;;;3.80;;
26858;SDS011;14429;48.346;16.338;2023-02-24T05:04:12;21.63;;;10.23;;
26858;SDS011;14429;48.346;16.338;2023-02-24T05:06:39;8.23;;;4.60;;
26858;SDS011;14429;48.346;16.338;2023-02-24T05:09:04;7.05;;;4.40;;
26858;SDS011;14429;48.346;16.338;2023-02-24T05:11:31;21.90;;;10.98;;
26858;SDS011;14429;48.346;16.338;2023-02-24T05:13:57;7.53;;;3.97;;
26858;SDS011;14429;48.346;16.338;2023-02-24T05:16:24;10.75;;;4.30;;
26858;SDS011;14429;48.346;16.338;2023-02-24T05:18:50;10.38;;;5.13;;
26858;SDS011;14429;48.346;16.338;2023-02-24T05:21:15;7.68;;;3.50;;
26858;SDS011;14429;48.346;16.338;2023-02-24T05:23:42;8.60;;;3.88;;
26858;SDS011;14429;48.346;16.338;2023-02-24T05:26:10;7.38;;;4.25;;
26858;SDS011;14429;48.346;16.338;2023-02-24T05:28:38;24.08;;;11.85;;
26858;SDS011;14429;48.346;16.338;2023-02-24T05:31:05;5.38;;;3.25;;
26858;SDS011;14429;48.346;16.338;2023-02-24T05:33:34;7.70;;;4.53;;
26858;SDS011;14429;48.346;16.338;2023-02-24T05:36:01;8.77;;;4.32;;
26858;SDS011;14429;48.346;16.338;2023-02-24T05:38:27;11.88;;;6.00;;
26858;SDS011;14429;48.346;16.338;2023-02-24T05:40:53;39.40;;;16.25;;
26858;SDS011;14429;48.346;16.338;2023-02-24T05:43:19;7.22;;;4.25;;
26858;SDS011;14429;48.346;16.338;2023-02-24T05:45:44;7.57;;;4.45;;
26858;SDS011;14429;48.346;16.338;2023-02-24T05:48:10;8.20;;;4.20;;
26858;SDS011;14429;48.346;16.338;2023-02-24T05:50:37;7.57;;;4.38;;
26858;SDS011;14429;48.346;16.338;2023-02-24T05:53:02;14.57;;;7.68;;
26858;SDS011;14429;48.346;16.338;2023-02-24T05:55:28;7.03;;;4.40;;
26858;SDS011;14429;48.346;16.338;2023-02-24T05:57:53;34.25;;;16.42;;
26858;SDS011;14429;48.346;16.338;2023-02-24T06:00:19;6.93;;;4.30;;
26858;SDS011;14429;48.346;16.338;2023-02-24T06:02:45;6.78;;;3.85;;
26858;SDS011;14429;48.346;16.338;2023-02-24T06:05:10;6.57;;;3.55;;
26858;SDS011;14429;48.346;16.338;2023-02-24T06:07:37;36.65;;;16.23;;
26858;SDS011;14429;48.346;16.338;2023-02-24T06:10:03;6.95;;;4.63;;
26858;SDS011;14429;48.346;16.338;2023-02-24T06:12:30;8.43;;;4.05;;
26858;SDS011;14429;48.346;16.338;2023-02-24T06:14:57;7.63;;;4.20;;
26858;SDS011;14429;48.346;16.338;2023-02-24T06:17:23;7.55;;;4.10;;
26858;SDS011;14429;48.346;16.338;2023-02-24T06:19:49;8.30;;;4.47;;
26858;SDS011;14429;48.346;16.338;2023-02-24T06:22:17;5.63;;;3.88;;
26858;SDS011;14429;48.346;16.338;2023-02-24T06:24:45;8.98;;;4.90;;
26858;SDS011;14429;48.346;16.338;2023-02-24T06:27:12;6.95;;;4.70;;
26858;SDS011;14429;48.346;16.338;2023-02-24T06:29:38;8.95;;;4.10;;
26858;SDS011;14429;48.346;16.338;2023-02-24T06:32:03;9.18;;;3.55;;
26858;SDS011;14429;48.346;16.338;2023-02-24T06:34:29;8.05;;;4.30;;
26858;SDS011;14429;48.346;16.338;2023-02-24T06:36:55;10.43;;;6.28;;
26858;SDS011;14429;48.346;16.338;2023-02-24T06:39:20;6.80;;;4.18;;
26858;SDS011;14429;48.346;16.338;2023-02-24T06:41:49;7.20;;;3.47;;
26858;SDS011;14429;48.346;16.338;2023-02-24T06:44:14;6.85;;;4.03;;
26858;SDS011;14429;48.346;16.338;2023-02-24T06:46:40;28.42;;;15.40;;
26858;SDS011;14429;48.346;16.338;2023-02-24T06:49:05;22.05;;;11.95;;
26858;SDS011;14429;48.346;16.338;2023-02-24T06:51:30;9.00;;;5.18;;
26858;SDS011;14429;48.346;16.338;2023-02-24T06:53:56;24.65;;;11.45;;
26858;SDS011;14429;48.346;16.338;2023-02-24T06:56:22;25.52;;;11.88;;
26858;SDS011;14429;48.346;16.338;2023-02-24T06:58:49;9.80;;;4.57;;
26858;SDS011;14429;48.346;16.338;2023-02-24T07:01:16;8.98;;;3.63;;
26858;SDS011;14429;48.346;16.338;2023-02-24T07:03:43;7.68;;;4.20;;
26858;SDS011;14429;48.346;16.338;2023-02-24T07:06:09;27.75;;;13.75;;
26858;SDS011;14429;48.346;16.338;2023-02-24T07:08:36;7.38;;;4.30;;
26858;SDS011;14429;48.346;16.338;2023-02-24T07:11:02;7.93;;;4.43;;
26858;SDS011;14429;48.346;16.338;2023-02-24T07:13:28;8.52;;;4.10;;
26858;SDS011;14429;48.346;16.338;2023-02-24T07:15:55;34.88;;;16.73;;
26858;SDS011;14429;48.346;16.338;2023-02-24T07:18:20;34.80;;;16.77;;
26858;SDS011;14429;48.346;16.338;2023-02-24T07:20:47;34.28;;;17.45;;
26858;SDS011;14429;48.346;16.338;2023-02-24T07:23:12;35.00;;;17.58;;
26858;SDS011;14429;48.346;16.338;2023-02-24T07:25:38;40.20;;;18.65;;
26858;SDS011;14429;48.346;16.338;2023-02-24T07:28:04;10.00;;;4.93;;
26858;SDS011;14429;48.346;16.338;2023-02-24T07:30:29;30.15;;;14.48;;
26858;SDS011;14429;48.346;16.338;2023-02-24T07:32:57;42.40;;;20.80;;
26858;SDS011;14429;48.346;16.338;2023-02-24T07:35:23;19.85;;;10.18;;
26858;SDS011;14429;48.346;16.338;2023-02-24T07:37:48;8.27;;;5.10;;
26858;SDS011;14429;48.346;16.338;2023-02-24T07:40:14;8.68;;;4.63;;
26858;SDS011;14429;48.346;16.338;2023-02-24T07:42:39;38.28;;;17.75;;
26858;SDS011;14429;48.346;16.338;2023-02-24T07:45:05;15.13;;;5.70;;
26858;SDS011;14429;48.346;16.338;2023-02-24T07:47:32;33.40;;;17.48;;
26858;SDS011;14429;48.346;16.338;2023-02-24T07:49:58;35.25;;;18.17;;
26858;SDS011;14429;48.346;16.338;2023-02-24T07:52:24;17.55;;;8.98;;
26858;SDS011;14429;48.346;16.338;2023-02-24T07:54:49;36.53;;;16.27;;
26858;SDS011;14429;48.346;16.338;2023-02-24T07:57:15;38.00;;;18.60;;
26858;SDS011;14429;48.346;16.338;2023-02-24T07:59:40;41.47;;;19.40;;
26858;SDS011;14429;48.346;16.338;2023-02-24T08:02:08;21.75;;;8.88;;
26858;SDS011;14429;48.346;16.338;2023-02-24T08:04:34;27.17;;;13.32;;
26858;SDS011;14429;48.346;16.338;2023-02-24T08:07:00;44.28;;;18.27;;
26858;SDS011;14429;48.346;16.338;2023-02-24T08:09:28;38.72;;;19.33;;
26858;SDS011;14429;48.346;16.338;2023-02-24T08:11:55;39.67;;;20.60;;
26858;SDS011;14429;48.346;16.338;2023-02-24T08:14:21;11.23;;;6.60;;
26858;SDS011;14429;48.346;16.338;2023-02-24T08:16:49;43.10;;;18.83;;
26858;SDS011;14429;48.346;16.338;2023-02-24T08:19:17;33.85;;;15.52;;
26858;SDS011;14429;48.346;16.338;2023-02-24T08:21:44;29.55;;;11.95;;
26858;SDS011;14429;48.346;16.338;2023-02-24T08:24:14;10.70;;;6.15;;
26858;SDS011;14429;48.346;16.338;2023-02-24T08:26:40;26.85;;;14.98;;
26858;SDS011;14429;48.346;16.338;2023-02-24T08:29:06;41.22;;;18.17;;
26858;SDS011;14429;48.346;16.338;2023-02-24T08:31:31;38.15;;;19.30;;
26858;SDS011;14429;48.346;16.338;2023-02-24T08:33:57;34.05;;;15.27;;
26858;SDS011;14429;48.346;16.338;2023-02-24T08:36:22;11.98;;;6.13;;
26858;SDS011;14429;48.346;16.338;2023-02-24T08:38:48;10.43;;;5.45;;
26858;SDS011;14429;48.346;16.338;2023-02-24T08:41:15;35.30;;;16.83;;
26858;SDS011;14429;48.346;16.338;2023-02-24T08:43:42;27.25;;;13.40;;
26858;SDS011;14429;48.346;16.338;2023-02-24T08:46:13;32.72;;;17.05;;
26858;SDS011;14429;48.346;16.338;2023-02-24T08:48:41;36.28;;;17.10;;
26858;SDS011;14429;48.346;16.338;2023-02-24T08:51:09;10.05;;;5.43;;
26858;SDS011;14429;48.346;16.338;2023-02-24T08:53:36;8.65;;;4.28;;
26858;SDS011;14429;48.346;16.338;2023-02-24T08:56:03;31.58;;;13.73;;
26858;SDS011;14429;48.346;16.338;2023-02-24T08:58:29;23.20;;;12.68;;
26858;SDS011;14429;48.346;16.338;2023-02-24T09:00:55;32.08;;;12.77;;
26858;SDS011;14429;48.346;16.338;2023-02-24T09:03:22;26.95;;;11.45;;
26858;SDS011;14429;48.346;16.338;2023-02-24T09:05:49;7.13;;;4.53;;
26858;SDS011;14429;48.346;16.338;2023-02-24T09:08:15;21.02;;;10.45;;
26858;SDS011;14429;48.346;16.338;2023-02-24T09:10:40;8.07;;;4.15;;
26858;SDS011;14429;48.346;16.338;2023-02-24T09:13:05;8.32;;;4.47;;
26858;SDS011;14429;48.346;16.338;2023-02-24T09:15:32;8.48;;;4.57;;
26858;SDS011;14429;48.346;16.338;2023-02-24T09:17:58;6.15;;;3.67;;
26858;SDS011;14429;48.346;16.338;2023-02-24T09:20:23;7.00;;;4.30;;
26858;SDS011;14429;48.346;16.338;2023-02-24T09:22:49;27.77;;;11.95;;
26858;SDS011;14429;48.346;16.338;2023-02-24T09:25:14;30.65;;;13.63;;
26858;SDS011;14429;48.346;16.338;2023-02-24T09:27:39;23.65;;;11.18;;
26858;SDS011;14429;48.346;16.338;2023-02-24T09:30:06;7.05;;;4.55;;
26858;SDS011;14429;48.346;16.338;2023-02-24T09:32:33;28.00;;;11.98;;
26858;SDS011;14429;48.346;16.338;2023-02-24T09:34:59;27.48;;;11.75;;
26858;SDS011;14429;48.346;16.338;2023-02-24T09:37:24;11.20;;;6.32;;
26858;SDS011;14429;48.346;16.338;2023-02-24T09:39:50;16.95;;;7.53;;
26858;SDS011;14429;48.346;16.338;2023-02-24T09:42:18;13.50;;;7.55;;
26858;SDS011;14429;48.346;16.338;2023-02-24T09:44:45;15.93;;;6.57;;
26858;SDS011;14429;48.346;16.338;2023-02-24T09:47:14;11.50;;;5.30;;
26858;SDS011;14429;48.346;16.338;2023-02-24T09:49:45;13.27;;;5.90;;
26858;SDS011;14429;48.346;16.338;2023-02-24T09:52:14;16.65;;;6.80;;
26858;SDS011;14429;48.346;16.338;2023-02-24T09:54:42;14.10;;;7.00;;
26858;SDS011;14429;48.346;16.338;2023-02-24T09:57:10;8.73;;;5.20;;
26858;SDS011;14429;48.346;16.338;2023-02-24T09:59:47;15.02;;;6.38;;
26858;SDS011;14429;48.346;16.338;2023-02-24T10:02:22;11.68;;;5.60;;
26858;SDS011;14429;48.346;16.338;2023-02-24T10:05:04;14.38;;;5.88;;
26858;SDS011;14429;48.346;16.338;2023-02-24T10:07:40;9.68;;;5.60;;
26858;SDS011;14429;48.346;16.338;2023-02-24T10:10:09;10.90;;;5.28;;
26858;SDS011;14429;48.346;16.338;2023-02-24T10:12:37;9.05;;;5.38;;
26858;SDS011;14429;48.346;16.338;2023-02-24T10:15:04;10.30;;;5.13;;
26858;SDS011;14429;48.346;16.338;2023-02-24T10:17:36;12.88;;;4.65;;
26858;SDS011;14429;48.346;16.338;2023-02-24T10:20:07;9.70;;;4.97;;
26858;SDS011;14429;48.346;16.338;2023-02-24T10:22:40;9.82;;;5.22;;
26858;SDS011;14429;48.346;16.338;2023-02-24T10:25:17;8.00;;;4.60;;
26858;SDS011;14429;48.346;16.338;2023-02-24T10:27:49;11.48;;;5.18;;
26858;SDS011;14429;48.346;16.338;2023-02-24T10:30:26;9.05;;;5.20;;
26858;SDS011;14429;48.346;16.338;2023-02-24T10:32:59;7.97;;;4.57;;
26858;SDS011;14429;48.346;16.338;2023-02-24T10:35:30;9.45;;;5.00;;
26858;SDS011;14429;48.346;16.338;2023-02-24T10:37:58;7.35;;;4.03;;
26858;SDS011;14429;48.346;16.338;2023-02-24T10:40:24;8.10;;;4.45;;
26858;SDS011;14429;48.346;16.338;2023-02-24T10:42:50;8.07;;;4.53;;
26858;SDS011;14429;48.346;16.338;2023-02-24T10:45:28;7.90;;;4.68;;
26858;SDS011;14429;48.346;16.338;2023-02-24T10:47:55;9.77;;;4.28;;
26858;SDS011;14429;48.346;16.338;2023-02-24T10:50:25;7.93;;;4.18;;
26858;SDS011;14429;48.346;16.338;2023-02-24T10:52:54;9.07;;;4.53;;
26858;SDS011;14429;48.346;16.338;2023-02-24T10:55:28;7.38;;;3.72;;
26858;SDS011;14429;48.346;16.338;2023-02-24T10:57:59;6.25;;;3.05;;
26858;SDS011;14429;48.346;16.338;2023-02-24T11:00:26;7.47;;;3.95;;
26858;SDS011;14429;48.346;16.338;2023-02-24T11:02:52;5.70;;;3.53;;
26858;SDS011;14429;48.346;16.338;2023-02-24T11:05:18;6.93;;;3.72;;
26858;SDS011;14429;48.346;16.338;2023-02-24T11:07:47;9.05;;;4.20;;
26858;SDS011;14429;48.346;16.338;2023-02-24T11:10:15;8.88;;;3.88;;
26858;SDS011;14429;48.346;16.338;2023-02-24T11:12:46;7.43;;;3.88;;
26858;SDS011;14429;48.346;16.338;2023-02-24T11:15:15;14.95;;;6.88;;
26858;SDS011;14429;48.346;16.338;2023-02-24T11:17:47;9.95;;;3.70;;
26858;SDS011;14429;48.346;16.338;2023-02-24T11:20:20;5.78;;;3.60;;
26858;SDS011;14429;48.346;16.338;2023-02-24T11:22:50;5.70;;;3.20;;
26858;SDS011;14429;48.346;16.338;2023-02-24T11:25:18;6.05;;;3.63;;
26858;SDS011;14429;48.346;16.338;2023-02-24T11:27:47;5.30;;;3.42;;
26858;SDS011;14429;48.346;16.338;2023-02-24T11:30:14;4.40;;;3.05;;
26858;SDS011;14429;48.346;16.338;2023-02-24T11:32:53;11.32;;;3.33;;
26858;SDS011;14429;48.346;16.338;2023-02-24T11:35:30;4.82;;;2.90;;
26858;SDS011;14429;48.346;16.338;2023-02-24T11:38:03;6.32;;;3.53;;
26858;SDS011;14429;48.346;16.338;2023-02-24T11:40:40;8.80;;;3.22;;
26858;SDS011;14429;48.346;16.338;2023-02-24T11:43:09;6.82;;;2.97;;
26858;SDS011;14429;48.346;16.338;2023-02-24T11:45:38;4.82;;;3.13;;
26858;SDS011;14429;48.346;16.338;2023-02-24T11:48:09;7.50;;;2.92;;
26858;SDS011;14429;48.346;16.338;2023-02-24T11:50:38;4.47;;;2.80;;
26858;SDS011;14429;48.346;16.338;2023-02-24T11:53:11;5.15;;;2.72;;
26858;SDS011;14429;48.346;16.338;2023-02-24T11:55:44;15.55;;;4.50;;
26858;SDS011;14429;48.346;16.338;2023-02-24T11:58:13;6.45;;;3.00;;
26858;SDS011;14429;48.346;16.338;2023-02-24T12:00:45;6.53;;;3.47;;
26858;SDS011;14429;48.346;16.338;2023-02-24T12:03:22;6.55;;;3.47;;
26858;SDS011;14429;48.346;16.338;2023-02-24T12:05:54;10.32;;;3.63;;
26858;SDS011;14429;48.346;16.338;2023-02-24T12:08:33;7.10;;;3.00;;
26858;SDS011;14429;48.346;16.338;2023-02-24T12:11:05;5.68;;;3.10;;
26858;SDS011;14429;48.346;16.338;2023-02-24T12:13:36;13.88;;;3.17;;
26858;SDS011;14429;48.346;16.338;2023-02-24T12:16:06;6.78;;;3.80;;
26858;SDS011;14429;48.346;16.338;2023-02-24T12:18:37;15.38;;;7.88;;
26858;SDS011;14429;48.346;16.338;2023-02-24T12:21:05;12.65;;;4.65;;
26858;SDS011;14429;48.346;16.338;2023-02-24T12:23:35;7.32;;;2.97;;
26858;SDS011;14429;48.346;16.338;2023-02-24T12:26:14;9.43;;;3.47;;
26858;SDS011;14429;48.346;16.338;2023-02-24T12:28:57;6.60;;;3.05;;
26858;SDS011;14429;48.346;16.338;2023-02-24T12:31:34;4.50;;;2.67;;
26858;SDS011;14429;48.346;16.338;2023-02-24T12:34:09;6.63;;;3.10;;
26858;SDS011;14429;48.346;16.338;2023-02-24T12:36:49;5.50;;;2.80;;
26858;SDS011;14429;48.346;16.338;2023-02-24T12:39:26;5.47;;;2.90;;
26858;SDS011;14429;48.346;16.338;2023-02-24T12:41:56;4.93;;;2.97;;
26858;SDS011;14429;48.346;16.338;2023-02-24T12:44:30;6.85;;;2.60;;
26858;SDS011;14429;48.346;16.338;2023-02-24T12:47:03;8.75;;;2.50;;
26858;SDS011;14429;48.346;16.338;2023-02-24T12:52:32;5.57;;;2.83;;
26858;SDS011;14429;48.346;16.338;2023-02-24T12:55:06;5.35;;;3.05;;
26858;SDS011;14429;48.346;16.338;2023-02-24T12:57:38;6.15;;;3.17;;
26858;SDS011;14429;48.346;16.338;2023-02-24T13:00:12;3.50;;;2.40;;
26858;SDS011;14429;48.346;16.338;2023-02-24T13:02:44;4.97;;;2.83;;
26858;SDS011;14429;48.346;16.338;2023-02-24T13:05:20;7.18;;;2.63;;
26858;SDS011;14429;48.346;16.338;2023-02-24T13:08:01;4.50;;;2.97;;
26858;SDS011;14429;48.346;16.338;2023-02-24T13:10:40;8.13;;;3.55;;
26858;SDS011;14429;48.346;16.338;2023-02-24T13:13:13;9.30;;;3.15;;
26858;SDS011;14429;48.346;16.338;2023-02-24T13:15:49;4.85;;;2.88;;
26858;SDS011;14429;48.346;16.338;2023-02-24T13:18:22;7.13;;;2.38;;
26858;SDS011;14429;48.346;16.338;2023-02-24T13:20:48;3.90;;;2.50;;
26858;SDS011;14429;48.346;16.338;2023-02-24T13:23:25;8.43;;;2.50;;
26858;SDS011;14429;48.346;16.338;2023-02-24T13:25:52;4.30;;;2.38;;
26858;SDS011;14429;48.346;16.338;2023-02-24T13:28:23;3.42;;;2.38;;
26858;SDS011;14429;48.346;16.338;2023-02-24T13:30:56;3.67;;;2.05;;
26858;SDS011;14429;48.346;16.338;2023-02-24T13:33:24;4.35;;;2.70;;
26858;SDS011;14429;48.346;16.338;2023-02-24T13:36:04;5.05;;;2.75;;
26858;SDS011;14429;48.346;16.338;2023-02-24T13:38:33;4.28;;;2.67;;
26858;SDS011;14429;48.346;16.338;2023-02-24T13:41:05;4.53;;;2.47;;
26858;SDS011;14429;48.346;16.338;2023-02-24T13:43:33;6.13;;;2.10;;
26858;SDS011;14429;48.346;16.338;2023-02-24T13:45:59;6.97;;;2.53;;
26858;SDS011;14429;48.346;16.338;2023-02-24T13:51:38;4.00;;;2.33;;
26858;SDS011;14429;48.346;16.338;2023-02-24T13:54:19;5.55;;;2.05;;
26858;SDS011;14429;48.346;16.338;2023-02-24T13:56:56;4.40;;;2.22;;
26858;SDS011;14429;48.346;16.338;2023-02-24T13:59:37;5.45;;;2.80;;
26858;SDS011;14429;48.346;16.338;2023-02-24T14:02:13;5.25;;;2.38;;
26858;SDS011;14429;48.346;16.338;2023-02-24T14:04:43;3.28;;;2.20;;
26858;SDS011;14429;48.346;16.338;2023-02-24T14:07:14;4.57;;;2.50;;
26858;SDS011;14429;48.346;16.338;2023-02-24T14:09:45;4.22;;;2.67;;
26858;SDS011;14429;48.346;16.338;2023-02-24T14:12:13;5.63;;;2.35;;
26858;SDS011;14429;48.346;16.338;2023-02-24T14:14:42;4.28;;;2.45;;
26858;SDS011;14429;48.346;16.338;2023-02-24T14:17:17;3.33;;;2.30;;
26858;SDS011;14429;48.346;16.338;2023-02-24T14:19:45;9.00;;;2.28;;
26858;SDS011;14429;48.346;16.338;2023-02-24T14:22:13;2.78;;;1.80;;
26858;SDS011;14429;48.346;16.338;2023-02-24T14:24:42;3.78;;;2.72;;
26858;SDS011;14429;48.346;16.338;2023-02-24T14:27:13;3.20;;;1.90;;
26858;SDS011;14429;48.346;16.338;2023-02-24T14:29:47;2.13;;;1.73;;
26858;SDS011;14429;48.346;16.338;2023-02-24T14:32:16;3.72;;;2.08;;
26858;SDS011;14429;48.346;16.338;2023-02-24T14:34:44;4.03;;;1.85;;
26858;SDS011;14429;48.346;16.338;2023-02-24T14:37:10;5.57;;;2.00;;
26858;SDS011;14429;48.346;16.338;2023-02-24T14:39:36;2.97;;;2.00;;
26858;SDS011;14429;48.346;16.338;2023-02-24T14:42:03;2.67;;;1.88;;
26858;SDS011;14429;48.346;16.338;2023-02-24T14:44:39;3.72;;;2.20;;
26858;SDS011;14429;48.346;16.338;2023-02-24T14:47:08;3.38;;;2.05;;
26858;SDS011;14429;48.346;16.338;2023-02-24T14:49:36;2.63;;;1.88;;
26858;SDS011;14429;48.346;16.338;2023-02-24T14:52:03;5.88;;;2.30;;
26858;SDS011;14429;48.346;16.338;2023-02-24T14:54:36;2.38;;;1.80;;
26858;SDS011;14429;48.346;16.338;2023-02-24T14:57:07;8.35;;;2.53;;